Bei Facebook empfehlenBei Twitter postenGoogle plusPinterest

Das Wetter im Erzgebirge am 22.08.2015

Wetter und Klima am 22.08.2015 Holzhau im Erzgebirge (630m ü.NN)
Letzte gemessene Temperatur und Uhrzeit der Messung23:45:00 Uhr8.60 °C
Temperatur (Maximum / Höchstwert) und Uhrzeit der Messung13:00:00 Uhr23.00 °C
Temperatur (Minimum / Tiefstwert) und Uhrzeit der Messung06:30:006.90 °C
Errechneter Absolutwert der Temperaturschwankungen zwischen Tmin und Tmax des Tages16.10 K
Errechnete Tagesmitteltemperatur14.16146 °C
Gesamt - Niederschlag des Tages (in flüssiger Form)0.00 Liter / m²
Luftdruck (Maximum / Höchstwert) und Zeitpunkt der Messung00:15:00 Uhr1021.10 hPa
Luftdruck (Minimum / Tiefstwert) und Zeitpunkt der Messung23:45:00 Uhr1016.20 hPa
Errechneter Absolutwert der Luftdruckschwankungen des Tages4.90 hPa
Höchste gemessene Windgeschwindigkeit und Uhrzeit der Messung23:45:00 Uhr0.00 km/h
Errechnete Windhäufigkeit in Relation zu den Messwerten des Tages0.00000 %
Niedrigste Windkühle (Windchill) und Zeitpunkt der Messung06:30:00 Uhr6.90 °C
Taupunkt (Maximum / Höchstwert) und Uhrzeit der Messung09:30:00 Uhr13.90 °C
Taupunkt (Minimum / Tiefstwert) und Uhrzeit der Messung04:30:005.10 °C
Anzahl der automatisch eingelesenen Messwerte 96

Detaillierte Wetter- und Klima- Messwerte für den 22.08.2015 in Holzhau im Erzgebirge (630m ü.NN)
ZeitTemperaturLuftdruckRel. LuftfeuchteWindWindrichtungWindchillTaupunktNiederschlag l/m²
23:45:008.60 °C1016.20 hPa83.00 %5.90 °C 
23:30:008.60 °C1016.60 hPa82.00 %5.70 °C 
23:15:008.90 °C1016.50 hPa82.00 %6.00 °C 
23:00:009.20 °C1016.70 hPa81.00 %6.10 °C 
22:45:009.40 °C1016.70 hPa81.00 %6.30 °C 
22:30:009.80 °C1016.80 hPa80.00 %6.50 °C 
22:15:0010.10 °C1016.70 hPa79.00 %6.60 °C 
22:00:0010.50 °C1016.90 hPa79.00 %7.00 °C 
21:45:0010.90 °C1016.90 hPa78.00 %7.20 °C 
21:30:0011.10 °C1016.90 hPa77.00 %7.20 °C 
21:15:0011.30 °C1016.80 hPa76.00 %7.20 °C 
21:00:0011.50 °C1017.00 hPa74.00 %7.00 °C 
20:45:0012.00 °C1017.00 hPa72.00 %7.10 °C 
20:30:0012.60 °C1017.00 hPa70.00 %7.30 °C 
20:15:0013.60 °C1016.90 hPa67.00 %7.60 °C 
20:00:0014.50 °C1016.90 hPa65.00 %8.00 °C 
19:45:0015.50 °C1016.90 hPa63.00 %8.50 °C 
19:30:0016.50 °C1017.00 hPa60.00 %8.70 °C 
19:15:0017.90 °C1017.10 hPa56.00 %9.00 °C 
19:00:0019.40 °C1016.90 hPa50.00 %8.70 °C 
18:45:0020.10 °C1016.90 hPa48.00 %8.80 °C 
18:30:0020.90 °C1017.30 hPa46.00 %8.90 °C 
18:15:0021.80 °C1017.20 hPa46.00 %9.70 °C 
18:00:0021.80 °C1017.40 hPa47.00 %10.00 °C 
17:45:0021.40 °C1017.20 hPa46.00 %9.30 °C 
17:30:0020.90 °C1017.40 hPa47.00 %9.20 °C 
17:15:0021.10 °C1017.60 hPa45.00 %8.70 °C 
17:00:0021.80 °C1017.70 hPa47.00 %10.00 °C 
16:45:0020.50 °C1017.40 hPa47.00 %8.80 °C 
16:30:0020.60 °C1017.60 hPa47.00 %8.90 °C 
16:15:0020.30 °C1017.60 hPa48.00 %8.90 °C 
16:00:0020.40 °C1017.80 hPa46.00 %8.40 °C 
15:45:0021.10 °C1017.90 hPa45.00 %8.70 °C 
15:30:0021.60 °C1018.00 hPa44.00 %8.80 °C 
15:15:0022.90 °C1018.00 hPa44.00 %10.00 °C 
15:00:0022.80 °C1018.00 hPa44.00 %9.90 °C 
14:45:0022.90 °C1018.10 hPa46.00 %10.70 °C 
14:30:0022.20 °C1018.20 hPa47.00 %10.40 °C 
14:15:0022.90 °C1018.40 hPa47.00 %11.00 °C 
14:00:0021.80 °C1018.50 hPa50.00 %10.90 °C 
13:45:0021.80 °C1018.60 hPa47.00 %10.00 °C 
13:30:0022.60 °C1018.70 hPa48.00 %11.00 °C 
13:15:0022.50 °C1018.60 hPa49.00 %11.30 °C 
13:00:0023.00 °C1018.70 hPa51.00 %12.30 °C 
12:45:0022.10 °C1018.60 hPa52.00 %11.80 °C 
12:30:0021.00 °C1018.70 hPa55.00 %11.60 °C 
12:15:0019.40 °C1018.80 hPa56.00 %10.40 °C 
12:00:0019.00 °C1018.80 hPa56.00 %10.00 °C 
11:45:0019.40 °C1018.70 hPa56.00 %10.40 °C 
11:30:0019.90 °C1018.80 hPa55.00 %10.60 °C 
11:15:0020.10 °C1019.00 hPa53.00 %10.20 °C 
11:00:0021.70 °C1019.00 hPa53.00 %11.70 °C 
10:45:0021.60 °C1019.00 hPa54.00 %11.90 °C 
10:30:0021.10 °C1018.90 hPa57.00 %12.30 °C 
10:15:0020.40 °C1018.90 hPa60.00 %12.40 °C 
10:00:0019.70 °C1018.90 hPa63.00 %12.50 °C 
09:45:0018.90 °C1019.20 hPa70.00 %13.30 °C 
09:30:0017.80 °C1019.30 hPa78.00 %13.90 °C 
09:15:0016.20 °C1019.20 hPa84.00 %13.50 °C 
09:00:0014.90 °C1019.40 hPa86.00 %12.60 °C 
08:45:0013.60 °C1019.50 hPa87.00 %11.50 °C 
08:30:0012.40 °C1019.40 hPa87.00 %10.30 °C 
08:15:0011.30 °C1019.50 hPa88.00 %9.40 °C 
08:00:0010.20 °C1019.50 hPa89.00 %8.50 °C 
07:45:009.00 °C1019.40 hPa89.00 %7.30 °C 
07:30:008.30 °C1019.40 hPa89.00 %6.60 °C 
07:15:007.70 °C1019.40 hPa89.00 %6.00 °C 
07:00:007.30 °C1019.50 hPa89.00 %5.60 °C 
06:45:007.20 °C1019.60 hPa89.00 %5.50 °C 
06:30:006.90 °C1019.50 hPa89.00 %5.20 °C 
06:15:007.00 °C1019.50 hPa89.00 %5.30 °C 
06:00:007.10 °C1019.60 hPa89.00 %5.40 °C 
05:45:007.20 °C1019.60 hPa89.00 %5.50 °C 
05:30:007.20 °C1019.60 hPa89.00 %5.50 °C 
05:15:007.00 °C1019.60 hPa89.00 %5.30 °C 
05:00:006.90 °C1019.70 hPa89.00 %5.20 °C 
04:45:006.90 °C1019.70 hPa89.00 %5.20 °C 
04:30:006.90 °C1019.70 hPa88.00 %5.10 °C 
04:15:006.90 °C1019.70 hPa88.00 %5.10 °C 
04:00:006.90 °C1019.70 hPa88.00 %5.10 °C 
03:45:006.90 °C1019.80 hPa88.00 %5.10 °C 
03:30:007.00 °C1020.10 hPa88.00 %5.20 °C 
03:15:007.20 °C1020.10 hPa88.00 %5.30 °C 
03:00:007.30 °C1020.10 hPa88.00 %5.40 °C 
02:45:007.20 °C1020.20 hPa87.00 %5.20 °C 
02:30:007.30 °C1020.40 hPa87.00 %5.30 °C 
02:15:007.30 °C1020.40 hPa87.00 %5.30 °C 
02:00:007.40 °C1020.40 hPa86.00 %5.20 °C 
01:45:007.60 °C1020.50 hPa86.00 %5.40 °C 
01:30:007.60 °C1020.60 hPa86.00 %5.40 °C 
01:15:007.60 °C1020.70 hPa85.00 %5.20 °C 
01:00:007.80 °C1020.70 hPa85.00 %5.40 °C 
00:45:007.90 °C1020.90 hPa85.00 %5.50 °C 
00:30:008.10 °C1020.90 hPa84.00 %5.60 °C 
00:15:008.20 °C1021.10 hPa83.00 %5.50 °C 
00:00:008.40 °C1021.10 hPa83.00 %5.70 °C 

Permanenter Link zu dieser Seite: Wetter im Erzgebirge am 22.08.2015
Performance-Info: Die Erstellung der Seite / Statistik(en) / Tabelle(n) erforderte 5 Datenbankserver-Abfrage(n) und dauerte 123 Millisekunden. (Dieser Messwert ist von der Gesamt-Auslastung des Servers abhängig.)
Erzgebirge - Wetter | Erzgebirge - Wetter (Mobilgeräte) | Komplette Klimadatenbank